Time;durP1;ratioP1;P1;durP2;ratioP2;P2;SDS_P1;SDS_P2;PMS_P1;PMS_P2;Temp;Humidity;BMP_temperature;BMP_pressure;BME280_temperature;BME280_humidity;BME280_pressure;Samples;Min_cycle;Max_cycle;Signal;HPM_P1;HPM_P2
2022/12/22 03:26:26;;;;;;;143.88;49.13;;;8.00;99.90;;;;;;5062070;28;20053;-66
2022/12/22 03:28:52;;;;;;;125.85;45.45;;;7.60;99.90;;;;;;5048986;28;20051;-68
2022/12/22 03:31:18;;;;;;;170.73;53.95;;;7.70;99.90;;;;;;5041474;28;20585;-69
2022/12/22 03:33:43;;;;;;;158.45;52.90;;;7.70;99.90;;;;;;5060960;28;20048;-69
2022/12/22 03:36:10;;;;;;;157.68;53.85;;;8.40;99.90;;;;;;5056502;28;20064;-69
2022/12/22 03:38:35;;;;;;;163.18;52.05;;;7.60;99.90;;;;;;5063604;28;20044;-67
2022/12/22 03:41:01;;;;;;;163.10;53.75;;;7.70;99.90;;;;;;5056879;28;20036;-67
2022/12/22 03:46:31;;;;;;;155.68;50.13;;;7.80;99.90;;;;;;4976939;28;20039;-67
2022/12/22 03:49:11;;;;;;;182.55;52.45;;;7.60;99.90;;;;;;5046713;28;20076;-67
2022/12/22 03:51:48;;;;;;;172.10;50.53;;;8.00;99.90;;;;;;5032189;28;20052;-67
2022/12/22 03:54:16;;;;;;;173.63;52.88;;;7.80;99.90;;;;;;5037537;28;20422;-67
2022/12/22 03:56:42;;;;;;;180.35;55.70;;;7.70;99.90;;;;;;5054733;28;20124;-67
2022/12/22 03:59:09;;;;;;;184.30;52.67;;;7.40;99.90;;;;;;5038275;28;20104;-67
2022/12/22 04:01:38;;;;;;;170.13;51.83;;;7.70;99.90;;;;;;5070487;28;20055;-67
2022/12/22 04:04:04;;;;;;;182.05;52.70;;;8.40;99.90;;;;;;5041460;28;20037;-67
2022/12/22 04:06:30;;;;;;;166.93;51.72;;;7.70;99.90;;;;;;5027245;28;20464;-67
2022/12/22 04:08:55;;;;;;;175.80;53.45;;;7.50;99.90;;;;;;5038462;28;20036;-67
2022/12/22 04:14:05;;;;;;;165.80;52.50;;;7.80;99.90;;;;;;5036952;28;20052;-67
2022/12/22 04:16:31;;;;;;;203.15;57.08;;;7.30;99.90;;;;;;5051752;28;20059;-67
2022/12/22 04:18:57;;;;;;;173.95;52.38;;;7.50;99.90;;;;;;5068226;28;20036;-67
2022/12/22 04:21:23;;;;;;;176.57;52.13;;;7.20;99.90;;;;;;5035520;28;20129;-67
2022/12/22 04:23:51;;;;;;;200.77;56.22;;;7.60;99.90;;;;;;5061513;28;20402;-67
2022/12/22 04:26:19;;;;;;;188.82;55.50;;;7.70;99.90;;;;;;5056285;28;20045;-67
2022/12/22 04:28:45;;;;;;;160.70;51.10;;;;;;;;;;5043599;28;20053;-67
2022/12/22 04:31:11;;;;;;;170.25;49.90;;;7.60;99.90;;;;;;5034102;28;20041;-67
2022/12/22 04:33:37;;;;;;;134.63;44.80;;;7.40;99.90;;;;;;5059997;28;20405;-67
2022/12/22 04:36:04;;;;;;;140.48;45.85;;;7.60;99.90;;;;;;5039134;28;20044;-67
2022/12/22 04:38:29;;;;;;;122.70;43.35;;;7.60;99.90;;;;;;5040636;28;20232;-67
2022/12/22 04:40:55;;;;;;;132.48;44.83;;;7.60;99.90;;;;;;5059863;28;20123;-67
2022/12/22 04:43:21;;;;;;;126.63;42.15;;;8.10;99.90;;;;;;5053202;28;20041;-67
2022/12/22 04:45:46;;;;;;;125.47;43.58;;;8.10;99.90;;;;;;5059853;28;20129;-67
2022/12/22 04:48:12;;;;;;;122.68;42.75;;;7.00;99.90;;;;;;5037561;28;20036;-67
2022/12/22 04:50:38;;;;;;;119.38;42.80;;;7.30;99.90;;;;;;5038071;28;20398;-67
2022/12/22 04:53:03;;;;;;;132.50;43.78;;;7.30;99.90;;;;;;5054511;28;20486;-67
2022/12/22 04:55:29;;;;;;;117.45;41.08;;;7.50;99.90;;;;;;5040469;28;20082;-67
2022/12/22 04:57:55;;;;;;;119.10;37.03;;;7.60;99.90;;;;;;5052047;28;20033;-67
2022/12/22 05:00:20;;;;;;;98.45;35.85;;;7.20;99.90;;;;;;5039374;28;20410;-67
2022/12/22 05:02:46;;;;;;;111.07;35.67;;;7.60;99.90;;;;;;5063771;28;20551;-67
2022/12/22 05:05:11;;;;;;;104.85;37.70;;;7.20;99.90;;;;;;5043404;28;20075;-67
2022/12/22 05:07:37;;;;;;;82.95;31.05;;;7.30;99.90;;;;;;5042586;28;20409;-67
2022/12/22 05:10:04;;;;;;;83.55;31.23;;;7.90;99.90;;;;;;5068033;28;20025;-67
2022/12/22 05:15:14;;;;;;;103.63;33.05;;;7.50;99.90;;;;;;5071340;28;20402;-67
2022/12/22 05:17:39;;;;;;;127.18;38.15;;;6.40;99.90;;;;;;5065366;28;20043;-67
2022/12/22 05:20:06;;;;;;;138.23;41.15;;;7.10;99.90;;;;;;5061666;28;20033;-68
2022/12/22 05:22:31;;;;;;;217.95;54.92;;;6.90;99.90;;;;;;5063155;28;20048;-67
2022/12/22 05:24:57;;;;;;;192.50;52.90;;;6.60;99.90;;;;;;5065253;28;20037;-67
2022/12/22 05:27:23;;;;;;;367.75;72.32;;;7.30;99.90;;;;;;5040300;28;20044;-67
2022/12/22 05:29:48;;;;;;;311.85;59.95;;;8.10;99.90;;;;;;5058997;28;20036;-67
2022/12/22 05:32:14;;;;;;;450.60;82.95;;;7.50;99.90;;;;;;5061671;28;20481;-67
2022/12/22 05:34:39;;;;;;;409.67;74.75;;;7.60;99.90;;;;;;5064288;28;20482;-67
2022/12/22 05:37:05;;;;;;;427.95;78.05;;;6.50;99.90;;;;;;5058817;28;20491;-67
2022/12/22 05:39:31;;;;;;;247.27;54.00;;;7.40;99.90;;;;;;5045059;28;20168;-67
2022/12/22 05:41:56;;;;;;;365.98;64.38;;;6.90;99.90;;;;;;5042137;28;20039;-67
2022/12/22 05:44:22;;;;;;;326.90;58.35;;;7.00;99.90;;;;;;5055121;28;20119;-67
2022/12/22 05:46:51;;;;;;;333.63;57.67;;;7.20;99.90;;;;;;5057281;28;20043;-67
2022/12/22 05:49:17;;;;;;;308.35;55.47;;;6.90;99.90;;;;;;5057468;28;20036;-67
2022/12/22 05:51:43;;;;;;;375.17;67.25;;;7.40;99.90;;;;;;5055660;28;20551;-67
2022/12/22 05:54:09;;;;;;;250.90;49.58;;;6.90;99.90;;;;;;5033843;28;20038;-67
2022/12/22 05:56:35;;;;;;;337.10;59.25;;;6.50;99.90;;;;;;5043007;28;20029;-67
2022/12/22 05:59:01;;;;;;;302.63;53.63;;;7.20;99.90;;;;;;5062905;28;20124;-67
2022/12/22 06:01:26;;;;;;;197.88;40.78;;;7.00;99.90;;;;;;5061120;28;20032;-67
2022/12/22 06:03:52;;;;;;;368.75;57.47;;;6.40;99.90;;;;;;5071348;28;20032;-67
2022/12/22 06:06:18;;;;;;;274.38;48.60;;;7.00;99.90;;;;;;5043831;28;20041;-67
2022/12/22 06:08:43;;;;;;;274.33;43.90;;;7.30;99.90;;;;;;5066087;28;20040;-67
2022/12/22 06:11:09;;;;;;;323.27;53.28;;;7.20;99.90;;;;;;5066387;28;20044;-66
2022/12/22 06:13:35;;;;;;;250.35;43.40;;;6.50;99.90;;;;;;5039406;28;20048;-67
2022/12/22 06:16:00;;;;;;;216.82;40.50;;;6.80;99.90;;;;;;5063613;28;20037;-67
2022/12/22 06:18:27;;;;;;;143.10;30.98;;;7.20;99.90;;;;;;5037945;28;20067;-66
2022/12/22 06:20:53;;;;;;;182.25;36.47;;;7.50;99.90;;;;;;5047673;28;20036;-67
2022/12/22 06:23:20;;;;;;;229.40;40.58;;;6.60;99.90;;;;;;5060816;28;20766;-66
2022/12/22 06:26:00;;;;;;;178.00;32.95;;;7.20;99.90;;;;;;5047504;28;20044;-67
2022/12/22 06:28:26;;;;;;;167.35;31.80;;;6.40;99.90;;;;;;5061902;28;20048;-66
2022/12/22 06:30:52;;;;;;;166.57;29.25;;;6.60;99.90;;;;;;5058822;28;20072;-67
2022/12/22 06:33:18;;;;;;;220.55;34.85;;;6.80;99.90;;;;;;5059664;28;20032;-66
2022/12/22 06:35:44;;;;;;;173.48;32.55;;;7.00;99.90;;;;;;5066010;28;20044;-66
2022/12/22 06:38:10;;;;;;;114.78;26.17;;;7.20;99.90;;;;;;5060054;28;20494;-66
2022/12/22 06:40:35;;;;;;;115.38;25.95;;;6.60;99.90;;;;;;5047775;28;20036;-67
2022/12/22 06:43:07;;;;;;;170.35;32.08;;;7.00;99.90;;;;;;5063294;28;20033;-66
2022/12/22 06:45:33;;;;;;;138.88;28.90;;;7.00;99.90;;;;;;5056189;28;20406;-67
2022/12/22 06:47:59;;;;;;;119.18;25.02;;;6.20;99.90;;;;;;5051092;28;20464;-67
2022/12/22 06:50:25;;;;;;;88.78;19.35;;;;;;;;;;5055744;28;20040;-66
2022/12/22 06:52:51;;;;;;;90.00;20.52;;;6.30;99.90;;;;;;5054178;28;20033;-67
2022/12/22 06:55:16;;;;;;;97.30;20.40;;;6.20;99.90;;;;;;5057791;28;20082;-67
2022/12/22 06:57:42;;;;;;;94.72;20.92;;;6.60;99.90;;;;;;5037924;28;20041;-67
2022/12/22 07:00:09;;;;;;;101.15;21.42;;;6.20;99.90;;;;;;5052023;28;20676;-67
2022/12/22 07:02:35;;;;;;;97.22;22.73;;;6.30;99.90;;;;;;5044971;28;20048;-67
2022/12/22 07:05:01;;;;;;;94.53;20.67;;;6.40;99.90;;;;;;5044888;28;20033;-67
2022/12/22 07:07:26;;;;;;;88.03;19.15;;;6.10;99.90;;;;;;5057558;28;20040;-67
2022/12/22 07:09:54;;;;;;;139.18;25.48;;;6.20;99.90;;;;;;5065508;28;20040;-67
2022/12/22 07:12:20;;;;;;;117.57;23.92;;;6.40;99.90;;;;;;5025455;28;20037;-67
2022/12/22 07:14:46;;;;;;;65.68;16.08;;;6.00;99.90;;;;;;5068685;28;20171;-67
2022/12/22 07:17:11;;;;;;;46.08;12.07;;;5.70;99.90;;;;;;5038237;28;20117;-67
2022/12/22 07:19:37;;;;;;;67.20;16.70;;;5.90;99.90;;;;;;5067957;28;20036;-67
2022/12/22 07:22:02;;;;;;;109.38;21.90;;;6.00;99.90;;;;;;5051478;28;20152;-67
2022/12/22 07:24:28;;;;;;;86.22;20.38;;;5.90;99.90;;;;;;5056753;28;20036;-67
2022/12/22 07:26:54;;;;;;;87.45;17.80;;;5.60;99.90;;;;;;5042298;28;20062;-68
2022/12/22 07:29:20;;;;;;;113.97;20.30;;;5.60;99.90;;;;;;5034143;28;20072;-67
2022/12/22 07:31:45;;;;;;;108.25;22.42;;;5.70;99.90;;;;;;5059352;28;20037;-68
2022/12/22 07:34:11;;;;;;;89.50;20.38;;;5.60;99.90;;;;;;5040759;28;20512;-67
2022/12/22 07:36:37;;;;;;;71.80;19.50;;;6.00;99.90;;;;;;5068972;28;20055;-68
2022/12/22 07:39:03;;;;;;;106.50;21.67;;;5.50;99.90;;;;;;5069269;28;20489;-68
2022/12/22 07:44:12;;;;;;;62.00;13.90;;;5.00;99.90;;;;;;5045850;28;20056;-68
2022/12/22 07:46:38;;;;;;;54.90;13.55;;;5.60;99.90;;;;;;5055857;28;20090;-68
2022/12/22 07:51:51;;;;;;;78.32;18.20;;;5.10;99.90;;;;;;5042811;28;20040;-68
2022/12/22 07:54:17;;;;;;;77.07;18.52;;;4.70;99.90;;;;;;5025458;28;20453;-67
2022/12/22 07:56:44;;;;;;;70.40;16.45;;;5.00;99.90;;;;;;5052047;28;20041;-68
2022/12/22 07:59:10;;;;;;;60.80;14.75;;;5.40;99.90;;;;;;5053035;28;20411;-67
2022/12/22 08:01:36;;;;;;;55.15;15.18;;;5.00;99.90;;;;;;5052820;28;20088;-67
2022/12/22 08:04:02;;;;;;;95.13;19.08;;;5.50;99.90;;;;;;5051989;28;20040;-68
2022/12/22 08:06:30;;;;;;;60.65;14.88;;;4.70;99.90;;;;;;5052531;28;20418;-68
2022/12/22 08:08:57;;;;;;;52.08;14.50;;;;;;;;;;5059571;28;20125;-67
2022/12/22 08:11:22;;;;;;;50.75;13.52;;;4.90;99.90;;;;;;5051364;28;20037;-67
2022/12/22 08:13:48;;;;;;;59.40;15.55;;;4.80;99.90;;;;;;5054558;28;20041;-67
2022/12/22 08:16:15;;;;;;;70.35;17.25;;;4.80;99.90;;;;;;5035511;28;20041;-67
2022/12/22 08:18:40;;;;;;;48.22;14.52;;;5.40;99.90;;;;;;5049454;28;20179;-67
2022/12/22 08:21:07;;;;;;;48.97;14.63;;;4.40;99.90;;;;;;5044642;28;20123;-67
2022/12/22 08:23:33;;;;;;;49.28;13.27;;;4.60;99.90;;;;;;5054785;28;20119;-68
2022/12/22 08:25:58;;;;;;;67.75;26.63;;;4.70;99.90;;;;;;5033896;28;20060;-68
2022/12/22 08:28:24;;;;;;;80.35;29.48;;;4.70;99.90;;;;;;5048231;28;20037;-67
2022/12/22 08:30:50;;;;;;;52.25;17.70;;;4.60;99.90;;;;;;5049429;28;20524;-68
2022/12/22 08:33:16;;;;;;;82.00;21.45;;;4.80;99.90;;;;;;5055208;28;20036;-68
2022/12/22 08:35:42;;;;;;;110.88;29.48;;;4.60;99.90;;;;;;5050521;28;20103;-68
2022/12/22 08:38:10;;;;;;;80.82;23.20;;;4.60;99.90;;;;;;5054176;28;20033;-68
2022/12/22 08:40:36;;;;;;;72.10;17.63;;;;;;;;;;5059490;28;20040;-68
2022/12/22 08:43:05;;;;;;;58.90;16.25;;;4.40;99.90;;;;;;5060254;28;20036;-68
2022/12/22 08:45:32;;;;;;;48.53;15.02;;;4.40;99.90;;;;;;5051511;28;20041;-68
2022/12/22 08:47:57;;;;;;;43.95;15.60;;;4.80;99.90;;;;;;5055531;28;20044;-68
2022/12/22 08:50:24;;;;;;;43.95;15.43;;;4.80;99.90;;;;;;5036497;28;20075;-68
2022/12/22 08:52:50;;;;;;;49.28;15.07;;;4.70;99.90;;;;;;5049444;28;20072;-68
2022/12/22 08:55:16;;;;;;;36.30;13.15;;;4.60;99.90;;;;;;5045394;28;20433;-68
2022/12/22 08:57:41;;;;;;;31.33;11.85;;;4.80;99.90;;;;;;5044382;28;20106;-68
2022/12/22 09:00:11;;;;;;;37.78;13.30;;;4.60;99.90;;;;;;5061746;28;20086;-68
2022/12/22 09:02:37;;;;;;;34.20;13.02;;;5.20;99.90;;;;;;5043298;28;20579;-68
2022/12/22 09:05:03;;;;;;;29.30;12.02;;;5.20;99.90;;;;;;5063278;28;20090;-68
2022/12/22 09:07:29;;;;;;;26.25;11.40;;;4.90;99.90;;;;;;5045561;28;20420;-69
2022/12/22 09:09:57;;;;;;;24.10;11.27;;;4.80;99.90;;;;;;5049423;28;20517;-68
2022/12/22 09:12:23;;;;;;;26.50;10.95;;;5.20;99.90;;;;;;5047508;28;20042;-68
2022/12/22 09:14:49;;;;;;;27.73;12.05;;;5.00;99.90;;;;;;5065312;28;20048;-68
2022/12/22 09:17:14;;;;;;;24.10;9.75;;;4.90;99.90;;;;;;5066289;28;20509;-68
2022/12/22 09:19:40;;;;;;;20.05;9.73;;;5.60;99.90;;;;;;5059365;28;20040;-68
2022/12/22 09:22:06;;;;;;;25.48;11.07;;;5.90;99.90;;;;;;5038299;28;20041;-68
2022/12/22 09:24:31;;;;;;;20.15;10.50;;;5.50;99.90;;;;;;5064509;28;20116;-68
2022/12/22 09:26:57;;;;;;;18.27;9.25;;;5.60;99.90;;;;;;5047338;28;20074;-68
2022/12/22 09:29:23;;;;;;;22.65;10.60;;;5.60;99.90;;;;;;5064459;28;20063;-68
2022/12/22 09:31:48;;;;;;;22.67;9.93;;;5.70;99.90;;;;;;5053265;28;20490;-68
2022/12/22 09:34:14;;;;;;;22.05;8.73;;;5.80;99.90;;;;;;5046928;28;20049;-68
2022/12/22 09:36:40;;;;;;;20.52;8.75;;;5.90;99.90;;;;;;5058212;28;20045;-68
2022/12/22 09:39:08;;;;;;;18.38;9.65;;;5.60;99.90;;;;;;5063212;28;20041;-68
2022/12/22 09:41:56;;;;;;;16.52;7.28;;;6.20;99.90;;;;;;5061814;28;20064;-68
2022/12/22 09:44:38;;;;;;;14.23;6.82;;;6.60;99.90;;;;;;5055888;28;20059;-68
2022/12/22 09:47:20;;;;;;;18.90;7.18;;;6.20;99.90;;;;;;5047833;28;20048;-68
2022/12/22 09:49:46;;;;;;;16.58;8.05;;;6.70;99.90;;;;;;5038971;28;20048;-68
2022/12/22 09:52:33;;;;;;;17.67;7.32;;;6.20;99.90;;;;;;5065935;28;20692;-68
2022/12/22 09:55:00;;;;;;;13.50;6.45;;;6.20;99.90;;;;;;5061005;28;20145;-68
2022/12/22 09:57:30;;;;;;;13.35;6.25;;;6.60;99.90;;;;;;5042402;28;20068;-68
2022/12/22 10:00:13;;;;;;;21.58;7.35;;;6.00;99.90;;;;;;5055248;28;20069;-68
2022/12/22 10:03:26;;;;;;;14.40;6.78;;;6.30;99.90;;;;;;5050937;28;20028;-68
2022/12/22 10:06:13;;;;;;;16.40;6.30;;;7.10;99.90;;;;;;5058807;28;20033;-68
2022/12/22 10:08:42;;;;;;;14.63;6.00;;;6.70;99.90;;;;;;5052659;28;20095;-68
2022/12/22 10:11:16;;;;;;;14.43;5.65;;;6.50;99.90;;;;;;5036264;28;20045;-68
2022/12/22 10:13:43;;;;;;;15.63;6.40;;;6.60;99.90;;;;;;5040683;28;20033;-68
2022/12/22 10:16:26;;;;;;;16.35;5.95;;;6.80;99.90;;;;;;5051848;28;20055;-68
2022/12/22 10:19:05;;;;;;;14.48;6.07;;;6.30;99.90;;;;;;5060493;28;20124;-68
2022/12/22 10:21:31;;;;;;;15.40;6.70;;;6.60;99.90;;;;;;5050882;28;20075;-68
2022/12/22 10:23:57;;;;;;;16.88;5.85;;;6.70;99.90;;;;;;5042881;28;20489;-68
2022/12/22 10:26:31;;;;;;;13.77;6.70;;;7.10;99.90;;;;;;5065572;28;20484;-68
2022/12/22 10:29:09;;;;;;;15.90;6.20;;;6.80;99.90;;;;;;5061846;28;20037;-68
2022/12/22 10:31:53;;;;;;;17.48;6.18;;;6.60;99.90;;;;;;5048038;28;20094;-68
2022/12/22 10:34:19;;;;;;;20.95;6.68;;;6.70;99.90;;;;;;5059734;28;20033;-68
2022/12/22 10:36:56;;;;;;;12.85;6.47;;;6.60;99.90;;;;;;5045620;28;20528;-68
2022/12/22 10:39:25;;;;;;;18.00;7.60;;;6.70;99.90;;;;;;5053209;28;20490;-68
2022/12/22 10:41:54;;;;;;;16.75;7.28;;;6.90;99.90;;;;;;5039728;28;20049;-68
2022/12/22 10:44:33;;;;;;;18.88;5.97;;;6.70;99.90;;;;;;5036204;28;20517;-68
2022/12/22 10:47:10;;;;;;;14.73;5.57;;;6.90;99.90;;;;;;5054921;28;20045;-68
2022/12/22 10:49:38;;;;;;;13.35;5.70;;;6.40;99.90;;;;;;5062573;28;20398;-68
2022/12/22 10:52:15;;;;;;;15.48;5.85;;;7.50;99.90;;;;;;5058112;28;20482;-68
2022/12/22 10:54:43;;;;;;;19.83;5.18;;;7.10;99.90;;;;;;5054910;28;20547;-67
2022/12/22 10:57:12;;;;;;;16.05;4.90;;;7.10;99.90;;;;;;5060550;28;20432;-67
2022/12/22 10:59:59;;;;;;;14.07;4.85;;;7.00;99.90;;;;;;5068076;28;20036;-67
2022/12/22 11:02:28;;;;;;;11.40;4.43;;;6.90;99.90;;;;;;5066547;28;20538;-67
2022/12/22 11:05:01;;;;;;;17.17;5.55;;;7.20;99.90;;;;;;5039556;28;20043;-67
2022/12/22 11:07:28;;;;;;;13.90;4.50;;;;;;;;;;5065260;28;20036;-67
2022/12/22 11:09:54;;;;;;;19.75;5.75;;;;;;;;;;5067246;28;20509;-67
2022/12/22 11:12:36;;;;;;;14.40;4.55;;;7.50;99.90;;;;;;5068681;28;20040;-67
2022/12/22 11:15:02;;;;;;;15.95;5.60;;;7.40;99.90;;;;;;5063197;28;20037;-67
2022/12/22 11:17:45;;;;;;;16.70;4.55;;;7.90;99.90;;;;;;5062303;28;20456;-67
2022/12/22 11:20:39;;;;;;;15.15;5.03;;;7.70;99.90;;;;;;5061154;28;20051;-67
2022/12/22 11:23:27;;;;;;;11.90;4.22;;;7.60;99.90;;;;;;5063511;28;20093;-67
2022/12/22 11:26:02;;;;;;;11.10;4.40;;;;;;;;;;5069124;28;20032;-67
2022/12/22 11:28:40;;;;;;;13.45;4.25;;;7.90;99.90;;;;;;5065612;28;20512;-67
2022/12/22 11:31:27;;;;;;;13.77;4.55;;;7.90;99.90;;;;;;5064034;28;20047;-67
2022/12/22 11:34:19;;;;;;;16.55;5.07;;;7.90;99.90;;;;;;5058877;28;20498;-67
2022/12/22 11:36:44;;;;;;;17.85;4.47;;;7.70;99.90;;;;;;5002439;28;20040;-67
2022/12/22 11:39:16;;;;;;;17.60;4.80;;;8.10;99.90;;;;;;5036066;28;20041;-67
2022/12/22 11:41:48;;;;;;;11.07;4.30;;;9.40;99.90;;;;;;5039121;28;20110;-67
2022/12/22 11:44:44;;;;;;;13.30;4.22;;;10.70;99.90;;;;;;5053659;28;20051;-66
2022/12/22 11:47:35;;;;;;;13.35;3.85;;;10.80;99.90;;;;;;5060073;28;20036;-67
2022/12/22 11:50:38;;;;;;;16.23;5.40;;;11.60;99.90;;;;;;5041724;28;20122;-67
2022/12/22 11:53:31;;;;;;;14.15;3.70;;;11.60;99.90;;;;;;5064120;28;20040;-67
2022/12/22 11:56:12;;;;;;;17.98;4.30;;;11.90;99.90;;;;;;5050646;28;20040;-66
2022/12/22 11:58:58;;;;;;;13.55;3.70;;;11.20;99.90;;;;;;5059073;28;20555;-66
2022/12/22 12:01:59;;;;;;;13.98;3.67;;;11.00;99.90;;;;;;5062806;28;20041;-66
2022/12/22 12:04:30;;;;;;;12.18;3.58;;;11.90;99.90;;;;;;5016376;28;20541;-67
2022/12/22 12:07:04;;;;;;;12.43;3.10;;;11.70;99.90;;;;;;5051849;28;20041;-66
2022/12/22 12:09:45;;;;;;;10.68;3.83;;;11.80;99.90;;;;;;5056955;28;20098;-67
2022/12/22 12:12:36;;;;;;;14.05;3.53;;;11.10;99.90;;;;;;5052029;28;20044;-66
2022/12/22 12:15:31;;;;;;;23.05;3.90;;;11.90;1.00;;;;;;5056246;28;20037;-66
2022/12/22 12:18:05;;;;;;;;;;;10.30;75.60;;;;;;5058808;28;20112;-67
2022/12/22 12:20:49;;;;;;;12.95;3.42;;;10.20;32.60;;;;;;5050740;28;19917;-67
2022/12/22 12:23:33;;;;;;;11.40;2.78;;;9.50;99.90;;;;;;5058635;28;20143;-66
2022/12/22 12:26:20;;;;;;;8.47;2.93;;;9.20;99.90;;;;;;5042873;28;20056;-65
2022/12/22 12:28:48;;;;;;;17.88;3.92;;;9.00;99.90;;;;;;5056489;28;20048;-66
2022/12/22 12:31:16;;;;;;;10.55;2.97;;;;;;;;;;5058130;28;20465;-67
2022/12/22 12:33:53;;;;;;;16.08;3.10;;;9.30;99.90;;;;;;5054255;28;20040;-66
2022/12/22 12:36:32;;;;;;;12.82;2.92;;;9.60;99.90;;;;;;5056984;28;20040;-66
2022/12/22 12:39:15;;;;;;;10.50;3.40;;;10.40;99.90;;;;;;5049567;28;20112;-67
2022/12/22 12:42:00;;;;;;;10.98;3.63;;;10.40;1.00;;;;;;5055902;28;20081;-66
2022/12/22 12:44:27;;;;;;;11.02;2.92;;;;;;;;;;5052586;28;20049;-66
2022/12/22 12:47:13;;;;;;;13.10;3.20;;;10.30;59.60;;;;;;5039344;28;20082;-66
2022/12/22 12:49:51;;;;;;;13.95;3.60;;;10.00;99.90;;;;;;5053437;28;20048;-66
2022/12/22 12:52:16;;;;;;;10.70;2.50;;;10.10;48.10;;;;;;5059132;28;20044;-66
2022/12/22 12:54:46;;;;;;;11.75;3.00;;;10.00;95.90;;;;;;5052352;28;20127;-66
2022/12/22 12:57:47;;;;;;;20.27;4.22;;;8.80;99.90;;;;;;5056363;28;20081;-66
2022/12/22 13:00:31;;;;;;;12.63;3.08;;;9.70;99.90;;;;;;5055820;28;20044;-66
2022/12/22 13:03:04;;;;;;;15.03;3.10;;;9.50;99.90;;;;;;5063017;28;20033;-66
2022/12/22 13:05:53;;;;;;;14.60;3.05;;;9.10;99.90;;;;;;5058858;28;20407;-66
2022/12/22 13:08:25;;;;;;;9.88;3.25;;;9.20;99.90;;;;;;5040318;28;20045;-66
2022/12/22 13:10:54;;;;;;;15.00;3.67;;;9.00;99.90;;;;;;5032457;28;20083;-66
2022/12/22 13:13:23;;;;;;;12.32;3.17;;;8.80;99.90;;;;;;5053571;28;20052;-66
2022/12/22 13:16:14;;;;;;;13.93;3.55;;;9.20;99.90;;;;;;5055797;28;20091;-66
2022/12/22 13:18:45;;;;;;;11.15;3.15;;;8.40;99.90;;;;;;5034006;28;20064;-66
2022/12/22 13:21:26;;;;;;;10.63;3.30;;;8.90;99.90;;;;;;5059360;28;20383;-66
2022/12/22 13:24:02;;;;;;;13.20;3.60;;;9.10;99.90;;;;;;5053039;28;20033;-66
2022/12/22 13:26:36;;;;;;;14.57;2.90;;;8.60;99.90;;;;;;5059851;28;20080;-65
2022/12/22 13:29:02;;;;;;;14.02;3.25;;;9.30;99.90;;;;;;5061408;28;20041;-65
2022/12/22 13:31:32;;;;;;;11.50;2.78;;;8.60;99.90;;;;;;5062550;28;20055;-65
2022/12/22 13:34:29;;;;;;;11.18;3.35;;;8.80;99.90;;;;;;5053629;28;20195;-65
2022/12/22 13:36:58;;;;;;;12.35;3.05;;;8.90;99.90;;;;;;5060173;28;20456;-65
2022/12/22 13:39:24;;;;;;;11.55;3.65;;;8.90;99.90;;;;;;5039033;28;20040;-65
2022/12/22 13:41:50;;;;;;;12.15;3.45;;;9.10;99.90;;;;;;5060698;28;20070;-65
2022/12/22 13:44:30;;;;;;;14.98;3.78;;;8.80;99.90;;;;;;5066329;28;20055;-67
2022/12/22 13:47:06;;;;;;;12.27;2.83;;;9.20;99.90;;;;;;5050477;28;20044;-65
2022/12/22 13:49:33;;;;;;;10.32;2.40;;;9.60;99.90;;;;;;5054662;28;20040;-65
2022/12/22 13:52:00;;;;;;;13.93;3.05;;;9.10;99.90;;;;;;5052970;28;20056;-65
2022/12/22 13:54:31;;;;;;;10.00;2.50;;;10.40;99.90;;;;;;5072704;28;20045;-65
2022/12/22 13:56:58;;;;;;;13.75;3.53;;;9.60;99.90;;;;;;5045466;28;20036;-65
2022/12/22 13:59:27;;;;;;;13.93;2.55;;;;;;;;;;5072594;28;20036;-65
2022/12/22 14:01:59;;;;;;;13.27;3.05;;;;;;;;;;5067822;28;20033;-65
2022/12/22 14:04:25;;;;;;;13.00;2.20;;;9.90;99.90;;;;;;5064905;28;20130;-65
2022/12/22 14:06:51;;;;;;;9.45;2.50;;;;;;;;;;5057607;28;20128;-65
2022/12/22 14:09:22;;;;;;;11.07;3.13;;;9.00;99.90;;;;;;5070715;28;20119;-65
2022/12/22 14:12:00;;;;;;;10.05;2.30;;;9.80;99.90;;;;;;5069766;28;20037;-65
2022/12/22 14:14:40;;;;;;;11.57;2.30;;;9.50;99.90;;;;;;5029508;28;20055;-65
2022/12/22 14:17:29;;;;;;;10.30;2.55;;;9.10;99.90;;;;;;5050549;28;20064;-66
2022/12/22 14:19:57;;;;;;;9.98;2.13;;;9.40;99.90;;;;;;5054985;28;20036;-66
2022/12/22 14:22:44;;;;;;;9.43;2.50;;;8.80;99.90;;;;;;5066933;28;20039;-66
2022/12/22 14:25:17;;;;;;;10.73;3.47;;;9.40;99.90;;;;;;5066787;28;20055;-66
2022/12/22 14:27:51;;;;;;;8.52;2.40;;;9.10;99.90;;;;;;5049315;28;20048;-66
2022/12/22 14:30:23;;;;;;;13.80;2.95;;;9.60;99.90;;;;;;5052943;28;20040;-65
2022/12/22 14:32:53;;;;;;;12.48;2.72;;;9.20;99.90;;;;;;5054255;28;20043;-66
2022/12/22 14:35:19;;;;;;;10.93;2.15;;;9.60;99.90;;;;;;5061410;28;20040;-66
2022/12/22 14:37:49;;;;;;;9.70;2.85;;;9.20;99.90;;;;;;5053440;28;20044;-65
2022/12/22 14:40:28;;;;;;;8.15;2.53;;;;;;;;;;5055382;28;20133;-65
2022/12/22 14:42:55;;;;;;;9.70;2.70;;;8.50;99.90;;;;;;5034889;28;20103;-66
2022/12/22 14:45:21;;;;;;;10.15;2.42;;;8.30;99.90;;;;;;5054388;28;20041;-65
2022/12/22 14:47:47;;;;;;;9.43;2.55;;;8.80;99.90;;;;;;5058576;28;20044;-65
2022/12/22 14:50:17;;;;;;;12.40;3.17;;;8.90;99.90;;;;;;5053630;28;20064;-65
2022/12/22 14:52:57;;;;;;;8.05;2.65;;;8.20;99.90;;;;;;5058908;28;20418;-65
2022/12/22 14:55:48;;;;;;;10.10;2.75;;;8.70;99.90;;;;;;5054691;28;20067;-65
2022/12/22 14:58:19;;;;;;;10.68;2.20;;;8.30;99.90;;;;;;5062318;28;20037;-65
2022/12/22 15:01:14;;;;;;;8.70;2.90;;;9.20;99.90;;;;;;5036446;28;20045;-65
2022/12/22 15:03:40;;;;;;;9.05;2.75;;;8.50;99.90;;;;;;5039457;28;20098;-65
2022/12/22 15:06:23;;;;;;;11.68;3.08;;;7.90;99.90;;;;;;5060097;28;20040;-65
2022/12/22 15:08:52;;;;;;;10.20;3.08;;;;;;;;;;5056125;28;20033;-65
2022/12/22 15:11:19;;;;;;;12.07;3.13;;;8.10;99.90;;;;;;5057533;28;20095;-65
2022/12/22 15:13:48;;;;;;;9.13;2.97;;;8.20;99.90;;;;;;5051502;28;20052;-65
2022/12/22 15:16:16;;;;;;;8.77;3.60;;;8.60;99.90;;;;;;5033854;28;20102;-66
2022/12/22 15:18:42;;;;;;;12.20;2.85;;;8.50;99.90;;;;;;5050762;28;20136;-66
2022/12/22 15:21:12;;;;;;;11.30;3.40;;;8.10;99.90;;;;;;5061185;28;20517;-65
2022/12/22 15:23:38;;;;;;;9.60;2.85;;;;;;;;;;5055065;28;20053;-65
2022/12/22 15:26:04;;;;;;;13.07;3.95;;;7.90;99.90;;;;;;5042524;28;20127;-66
2022/12/22 15:28:30;;;;;;;9.27;4.95;;;8.00;99.90;;;;;;5049149;28;20127;-65
2022/12/22 15:30:57;;;;;;;25.35;9.70;;;7.80;99.90;;;;;;5024358;28;20033;-65
2022/12/22 15:33:22;;;;;;;21.17;10.23;;;7.70;99.90;;;;;;5056304;28;20076;-65
2022/12/22 15:35:48;;;;;;;20.88;11.40;;;7.70;99.90;;;;;;5058326;28;20036;-65
2022/12/22 15:38:22;;;;;;;22.35;13.88;;;7.80;99.90;;;;;;5034993;28;20567;-65
2022/12/22 15:40:49;;;;;;;22.40;14.90;;;8.10;99.90;;;;;;5053457;28;20067;-66
2022/12/22 15:43:15;;;;;;;29.55;16.48;;;7.80;99.90;;;;;;5056834;28;20037;-65
2022/12/22 15:45:41;;;;;;;27.33;14.20;;;7.70;99.90;;;;;;5056969;28;20028;-65
2022/12/22 15:48:13;;;;;;;27.13;15.70;;;7.60;99.90;;;;;;5057620;28;20471;-66
2022/12/22 15:50:41;;;;;;;22.88;14.00;;;7.10;99.90;;;;;;5056616;28;20111;-65
2022/12/22 15:53:11;;;;;;;24.90;15.38;;;7.60;99.90;;;;;;5057576;28;20040;-66
2022/12/22 15:55:43;;;;;;;26.42;16.48;;;7.10;99.90;;;;;;5041948;28;20489;-65
2022/12/22 15:58:12;;;;;;;29.33;15.70;;;7.60;99.90;;;;;;5056082;28;20033;-65
2022/12/22 16:00:38;;;;;;;25.35;14.77;;;7.40;99.90;;;;;;5066860;28;20399;-65
2022/12/22 16:03:04;;;;;;;30.63;16.50;;;7.60;99.90;;;;;;5055711;28;20028;-66
2022/12/22 16:05:31;;;;;;;26.25;15.90;;;7.60;99.90;;;;;;5058250;28;20037;-65
2022/12/22 16:07:57;;;;;;;29.15;15.40;;;;;;;;;;5054030;28;20112;-66
2022/12/22 16:10:27;;;;;;;24.98;14.73;;;8.00;99.90;;;;;;5057241;28;20060;-65
2022/12/22 16:12:59;;;;;;;28.63;15.23;;;8.20;99.90;;;;;;5054097;28;20032;-66
2022/12/22 16:15:26;;;;;;;23.50;13.55;;;7.20;99.90;;;;;;5056147;28;20134;-65
2022/12/22 16:17:53;;;;;;;28.73;15.00;;;7.80;99.90;;;;;;5052494;28;20071;-65
2022/12/22 16:20:19;;;;;;;24.75;14.00;;;8.00;99.90;;;;;;5055386;28;20063;-65
2022/12/22 16:22:47;;;;;;;27.27;13.80;;;7.20;99.90;;;;;;5059326;28;20040;-66
2022/12/22 16:25:15;;;;;;;24.00;14.27;;;7.30;99.90;;;;;;5043114;28;20524;-65
2022/12/22 16:27:41;;;;;;;22.80;13.10;;;7.20;99.90;;;;;;5065911;28;20047;-65
2022/12/22 16:30:14;;;;;;;24.92;13.82;;;7.60;99.90;;;;;;5041712;28;20468;-65
2022/12/22 16:32:41;;;;;;;24.30;13.93;;;6.90;99.90;;;;;;5053726;28;20052;-65
2022/12/22 16:35:09;;;;;;;25.77;14.82;;;7.60;99.90;;;;;;5039985;28;20044;-65
2022/12/22 16:37:35;;;;;;;25.55;15.75;;;;;;;;;;5052709;28;20510;-65
2022/12/22 16:40:03;;;;;;;28.35;15.80;;;7.30;99.90;;;;;;5055580;28;20041;-65